Time;durP1;ratioP1;P1;durP2;ratioP2;P2;SDS_P1;SDS_P2;PMS_P1;PMS_P2;Temp;Humidity;BMP_temperature;BMP_pressure;BME280_temperature;BME280_humidity;BME280_pressure;Samples;Min_cycle;Max_cycle;Signal;HPM_P1;HPM_P2
2023/03/19 01:13:38;;;;;;;22.15;10.90;;;;;;;6.27;100.00;100742.84;6161033;23;20253;-72
2023/03/19 01:16:05;;;;;;;23.00;11.10;;;;;;;6.33;100.00;100741.50;6211302;23;20031;-72
2023/03/19 01:18:32;;;;;;;22.25;10.95;;;;;;;6.24;100.00;100743.91;6194582;23;20024;-71
2023/03/19 01:20:59;;;;;;;18.58;10.90;;;;;;;6.06;100.00;100748.16;6210443;23;20096;-72
2023/03/19 01:23:25;;;;;;;21.92;10.88;;;;;;;6.17;100.00;100744.59;6210923;23;20028;-72
2023/03/19 01:25:52;;;;;;;27.23;11.77;;;;;;;6.19;100.00;100745.31;6210543;23;20480;-71
2023/03/19 01:28:19;;;;;;;21.20;11.40;;;;;;;6.30;100.00;100744.41;6211293;23;20021;-72
2023/03/19 01:30:45;;;;;;;21.40;10.43;;;;;;;6.25;100.00;100744.75;6210812;23;20323;-71
2023/03/19 01:33:12;;;;;;;24.73;11.60;;;;;;;6.27;100.00;100750.00;6208525;23;20082;-72
2023/03/19 01:46:31;;;;;;;23.33;11.35;;;;;;;6.20;100.00;100739.84;6199525;22;20017;-70
2023/03/19 01:49:01;;;;;;;22.97;11.80;;;;;;;6.11;100.00;100745.09;6219005;23;20017;-70
2023/03/19 01:51:33;;;;;;;22.45;12.40;;;;;;;5.86;100.00;100751.66;6220713;23;20021;-68
2023/03/19 01:54:03;;;;;;;24.63;11.80;;;;;;;6.03;100.00;100756.41;6218966;23;20028;-70
2023/03/19 01:56:35;;;;;;;21.23;11.10;;;;;;;6.08;100.00;100754.22;6219890;23;20016;-70
2023/03/19 01:59:08;;;;;;;26.25;11.02;;;;;;;6.22;100.00;100745.88;6218679;23;20095;-68
2023/03/19 02:01:44;;;;;;;28.85;11.35;;;;;;;6.18;100.00;100747.13;6218701;23;20047;-68
2023/03/19 02:04:12;;;;;;;23.90;11.70;;;;;;;6.22;100.00;100753.03;6218268;23;20434;-71
2023/03/19 02:07:13;;;;;;;23.35;12.25;;;;;;;6.11;100.00;100747.75;6221525;23;20036;-69
2023/03/19 02:09:40;;;;;;;24.05;12.77;;;;;;;6.14;100.00;100735.03;6218243;23;20013;-69
2023/03/19 02:12:08;;;;;;;20.25;11.70;;;;;;;6.19;100.00;100739.97;6207338;23;20526;-69
2023/03/19 02:14:35;;;;;;;19.27;12.07;;;;;;;6.18;100.00;100730.28;6219106;23;20028;-69
2023/03/19 02:17:02;;;;;;;25.75;12.32;;;;;;;6.12;100.00;100729.00;6216802;23;20036;-69
2023/03/19 02:19:35;;;;;;;22.83;11.90;;;;;;;6.10;100.00;100725.63;6218108;23;20024;-70
2023/03/19 02:22:03;;;;;;;20.13;11.57;;;;;;;6.04;100.00;100727.94;6217428;23;20017;-69
2023/03/19 02:24:36;;;;;;;21.75;12.35;;;;;;;6.07;100.00;100725.88;6217507;23;20100;-69
2023/03/19 02:27:03;;;;;;;19.45;11.52;;;;;;;6.12;100.00;100737.00;6217517;23;20024;-68
2023/03/19 02:29:30;;;;;;;27.98;12.60;;;;;;;6.10;100.00;100735.44;6215802;23;20553;-69
2023/03/19 02:31:56;;;;;;;22.92;11.88;;;;;;;6.14;100.00;100727.03;6217310;23;20127;-68
2023/03/19 02:34:23;;;;;;;26.67;13.23;;;;;;;6.05;100.00;100740.31;6217380;23;20038;-68
2023/03/19 02:36:57;;;;;;;26.67;12.07;;;;;;;6.04;100.00;100739.44;6216308;23;20026;-68
2023/03/19 02:39:31;;;;;;;18.63;11.05;;;;;;;6.06;100.00;100734.84;6217824;23;20103;-67
2023/03/19 02:41:59;;;;;;;23.80;12.38;;;;;;;6.07;100.00;100731.19;6217846;23;20091;-68
2023/03/19 02:44:26;;;;;;;23.67;11.70;;;;;;;6.05;100.00;100737.66;6219173;23;20040;-69
2023/03/19 02:46:52;;;;;;;21.92;12.90;;;;;;;6.05;100.00;100743.81;6217732;23;20124;-70
2023/03/19 02:49:19;;;;;;;23.92;12.95;;;;;;;6.00;100.00;100740.69;6217969;23;20056;-68
2023/03/19 02:51:46;;;;;;;22.20;12.82;;;;;;;6.07;100.00;100733.84;6218096;23;20017;-70
2023/03/19 02:54:12;;;;;;;22.20;12.77;;;;;;;6.05;100.00;100730.50;6218612;23;20023;-68
2023/03/19 02:56:39;;;;;;;23.10;11.93;;;;;;;6.00;100.00;100730.88;6216478;23;20437;-69
2023/03/19 02:59:06;;;;;;;19.70;12.20;;;;;;;6.07;100.00;100733.03;6214937;23;20346;-70
2023/03/19 03:01:32;;;;;;;24.73;13.07;;;;;;;6.03;100.00;100729.78;6216946;23;20553;-70
2023/03/19 03:03:59;;;;;;;24.52;12.35;;;;;;;6.04;100.00;100720.81;6213599;23;20022;-69
2023/03/19 03:06:25;;;;;;;20.30;12.02;;;;;;;6.04;100.00;100734.13;6218406;23;20030;-70
2023/03/19 03:08:52;;;;;;;20.88;12.50;;;;;;;5.98;100.00;100735.50;6196902;23;20041;-70
2023/03/19 03:11:18;;;;;;;24.40;12.40;;;;;;;5.91;100.00;100723.69;6198847;23;20041;-69
2023/03/19 03:13:45;;;;;;;27.90;12.80;;;;;;;5.99;100.00;100733.69;6218060;23;20027;-70
2023/03/19 03:16:12;;;;;;;22.00;11.88;;;;;;;6.02;100.00;100738.75;6219038;23;20421;-69
2023/03/19 03:18:39;;;;;;;23.02;12.30;;;;;;;5.86;100.00;100749.00;6216897;23;20024;-69
2023/03/19 03:21:05;;;;;;;27.23;12.45;;;;;;;5.77;100.00;100740.81;6214580;23;20722;-68
2023/03/19 03:23:32;;;;;;;24.85;12.95;;;;;;;5.53;100.00;100734.88;6215115;23;20016;-69
2023/03/19 03:25:58;;;;;;;26.17;11.95;;;;;;;5.65;100.00;100733.84;6218033;23;20042;-71
2023/03/19 03:28:25;;;;;;;27.10;12.95;;;;;;;5.40;100.00;100747.50;6216749;23;20021;-69
2023/03/19 03:30:57;;;;;;;27.45;13.05;;;;;;;5.45;100.00;100751.47;6215731;23;20076;-69
2023/03/19 03:33:24;;;;;;;24.73;13.60;;;;;;;5.66;100.00;100759.47;6214742;23;20104;-70
2023/03/19 03:35:51;;;;;;;26.20;14.02;;;;;;;5.69;100.00;100780.53;6219934;23;20043;-69
2023/03/19 03:38:17;;;;;;;23.92;13.25;;;;;;;5.84;100.00;100789.06;6193221;23;20048;-70
2023/03/19 03:40:44;;;;;;;25.73;13.75;;;;;;;5.82;100.00;100790.16;6220029;23;20024;-70
2023/03/19 03:43:11;;;;;;;24.85;13.70;;;;;;;5.79;100.00;100779.78;6219659;23;20072;-69
2023/03/19 03:45:37;;;;;;;28.63;13.68;;;;;;;5.65;100.00;100787.06;6218216;23;20450;-70
2023/03/19 03:48:04;;;;;;;26.88;13.75;;;;;;;5.67;100.00;100795.78;6219119;23;20365;-70
2023/03/19 03:50:31;;;;;;;26.08;13.13;;;;;;;5.67;100.00;100768.34;6218727;23;20509;-70
2023/03/19 03:52:58;;;;;;;25.38;13.88;;;;;;;5.72;100.00;100784.75;6219370;23;20016;-70
2023/03/19 03:55:24;;;;;;;25.50;13.50;;;;;;;5.75;100.00;100793.34;6219137;23;20416;-74
2023/03/19 03:57:51;;;;;;;19.88;12.77;;;;;;;5.75;100.00;100789.84;6208773;23;20348;-74
2023/03/19 04:00:18;;;;;;;28.98;13.95;;;;;;;5.84;100.00;100788.22;6211478;23;20024;-74
2023/03/19 04:02:45;;;;;;;25.13;14.07;;;;;;;5.71;100.00;100783.91;6211818;23;20087;-73
2023/03/19 04:05:11;;;;;;;24.25;13.63;;;;;;;5.63;100.00;100801.47;6203427;23;20029;-73
2023/03/19 04:07:38;;;;;;;25.13;14.25;;;;;;;5.76;100.00;100787.03;6212206;23;20029;-73
2023/03/19 04:10:05;;;;;;;22.00;13.82;;;;;;;5.76;100.00;100799.50;6211270;23;20044;-74
2023/03/19 04:12:32;;;;;;;24.10;13.70;;;;;;;5.73;100.00;100797.97;6211280;23;20331;-73
2023/03/19 04:14:58;;;;;;;23.35;14.05;;;;;;;5.75;100.00;100801.31;6212162;23;20095;-72
2023/03/19 04:17:25;;;;;;;30.50;14.40;;;;;;;5.60;100.00;100807.91;6211572;23;20031;-72
2023/03/19 04:19:52;;;;;;;28.70;13.20;;;;;;;5.66;100.00;100802.06;6212099;23;20025;-74
2023/03/19 04:22:18;;;;;;;21.65;12.63;;;;;;;5.63;100.00;100812.13;6210061;23;20368;-73
2023/03/19 04:24:44;;;;;;;25.77;13.70;;;;;;;5.57;100.00;100813.50;6210252;23;20029;-74
2023/03/19 04:27:11;;;;;;;28.75;13.90;;;;;;;5.55;100.00;100815.41;6206478;23;20091;-74
2023/03/19 04:29:37;;;;;;;29.80;13.80;;;;;;;5.68;100.00;100820.59;6210809;23;20021;-75
2023/03/19 04:32:05;;;;;;;22.95;14.02;;;;;;;5.56;100.00;100818.91;6210507;23;20495;-73
2023/03/19 04:34:31;;;;;;;29.73;14.48;;;;;;;5.57;100.00;100821.47;6211149;23;20103;-74
2023/03/19 04:36:58;;;;;;;26.42;14.55;;;;;;;5.76;100.00;100834.94;6216263;23;20091;-70
2023/03/19 04:39:24;;;;;;;28.52;13.82;;;;;;;5.79;100.00;100827.69;6221504;23;20100;-68
2023/03/19 04:41:51;;;;;;;27.27;13.85;;;;;;;5.81;100.00;100823.94;6221337;23;20076;-69
2023/03/19 04:44:17;;;;;;;24.58;13.50;;;;;;;5.83;100.00;100818.47;6221107;23;20025;-69
2023/03/19 04:46:45;;;;;;;26.42;14.80;;;;;;;5.76;100.00;100823.44;6222367;23;20116;-69
2023/03/19 04:49:11;;;;;;;28.17;15.05;;;;;;;5.71;100.00;100818.53;6221866;23;20020;-69
2023/03/19 04:51:38;;;;;;;23.98;14.82;;;;;;;5.66;100.00;100815.38;6219889;23;20476;-69
2023/03/19 04:54:05;;;;;;;29.45;15.98;;;;;;;5.63;100.00;100812.13;6220176;23;20031;-68
2023/03/19 04:56:31;;;;;;;30.48;16.33;;;;;;;5.49;100.00;100821.22;6223483;23;20028;-71
2023/03/19 04:58:58;;;;;;;30.30;16.75;;;;;;;5.04;100.00;100827.50;6237141;23;20072;-71
2023/03/19 05:01:24;;;;;;;28.00;16.48;;;;;;;4.70;100.00;100834.59;6218966;23;20085;-69
2023/03/19 05:03:51;;;;;;;30.65;17.02;;;;;;;4.53;100.00;100833.25;6194223;23;20032;-72
2023/03/19 05:06:18;;;;;;;37.15;18.60;;;;;;;4.83;100.00;100810.56;6233531;22;20009;-69
2023/03/19 05:08:45;;;;;;;33.53;19.85;;;;;;;4.67;100.00;100797.63;6237150;22;20016;-63
2023/03/19 05:11:12;;;;;;;42.42;21.90;;;;;;;4.27;100.00;100795.38;6235886;23;20024;-65
2023/03/19 05:13:38;;;;;;;43.90;23.92;;;;;;;4.33;100.00;100800.22;6232429;23;20095;-65
2023/03/19 05:16:05;;;;;;;42.63;23.20;;;;;;;4.49;100.00;100804.41;6231520;23;20025;-65
2023/03/19 05:18:32;;;;;;;41.08;24.88;;;;;;;4.60;100.00;100804.41;6223637;23;20044;-70
2023/03/19 05:20:59;;;;;;;46.08;25.45;;;;;;;4.76;100.00;100804.91;6234006;23;20004;-67
2023/03/19 05:23:25;;;;;;;42.50;24.92;;;;;;;4.81;100.00;100789.41;6232291;23;20043;-66
2023/03/19 05:25:52;;;;;;;43.45;25.27;;;;;;;4.89;100.00;100769.38;6227032;23;20020;-66
2023/03/19 05:28:18;;;;;;;50.50;23.63;;;;;;;4.85;100.00;100759.94;6231510;23;20047;-65
2023/03/19 05:30:45;;;;;;;49.33;24.80;;;;;;;4.93;100.00;100768.16;6202722;23;20017;-65
2023/03/19 05:33:11;;;;;;;40.25;24.40;;;;;;;5.11;100.00;100757.84;6228591;23;20028;-65
2023/03/19 05:35:39;;;;;;;40.75;25.15;;;;;;;5.09;100.00;100752.66;6228266;23;20048;-67
2023/03/19 05:38:06;;;;;;;37.17;23.70;;;;;;;5.23;100.00;100747.06;6227442;23;20048;-64
2023/03/19 05:40:34;;;;;;;40.88;23.42;;;;;;;5.23;100.00;100751.53;6224693;23;20068;-67
2023/03/19 05:43:01;;;;;;;35.83;22.67;;;;;;;5.24;100.00;100753.22;6226720;23;20024;-65
2023/03/19 05:45:27;;;;;;;40.13;22.05;;;;;;;5.38;100.00;100770.72;6218096;23;20027;-64
2023/03/19 05:47:54;;;;;;;43.72;22.45;;;;;;;5.28;100.00;100768.81;6224976;23;20029;-65
2023/03/19 05:50:21;;;;;;;35.85;19.80;;;;;;;5.28;100.00;100771.50;6224528;23;20396;-65
2023/03/19 05:52:47;;;;;;;33.60;19.63;;;;;;;5.21;100.00;100772.09;6224398;23;20024;-66
2023/03/19 05:55:14;;;;;;;29.48;20.08;;;;;;;5.36;100.00;100783.31;6226183;23;20029;-65
2023/03/19 05:57:41;;;;;;;32.25;21.00;;;;;;;5.29;100.00;100775.00;6225089;23;20036;-65
2023/03/19 06:00:08;;;;;;;35.60;21.65;;;;;;;5.41;100.00;100781.09;6225996;23;20421;-67
2023/03/19 06:02:35;;;;;;;33.67;21.10;;;;;;;5.19;100.00;100780.19;6224229;23;20103;-65
2023/03/19 06:05:03;;;;;;;31.70;19.52;;;;;;;5.36;100.00;100784.16;6225623;23;20048;-65
2023/03/19 06:07:29;;;;;;;33.20;21.08;;;;;;;5.29;100.00;100777.66;6229038;23;20072;-65
2023/03/19 06:09:56;;;;;;;38.45;22.55;;;;;;;5.39;100.00;100778.59;6229112;23;20020;-66
2023/03/19 06:12:23;;;;;;;35.35;21.40;;;;;;;5.31;100.00;100786.34;6212662;23;20044;-66
2023/03/19 06:14:50;;;;;;;31.75;20.10;;;;;;;5.41;100.00;100783.78;6229967;23;20024;-65
2023/03/19 06:17:17;;;;;;;30.38;20.80;;;;;;;5.34;100.00;100793.22;6229531;23;20099;-65
2023/03/19 06:19:43;;;;;;;37.90;21.63;;;;;;;5.48;100.00;100799.09;6228246;23;20024;-65
2023/03/19 06:22:10;;;;;;;32.83;19.02;;;;;;;5.29;100.00;100809.56;6223519;23;20028;-66
2023/03/19 06:24:37;;;;;;;37.67;19.90;;;;;;;5.41;100.00;100802.41;6191855;23;20044;-65
2023/03/19 06:27:03;;;;;;;34.95;19.40;;;;;;;4.77;100.00;100809.25;6225007;23;20095;-66
2023/03/19 06:29:30;;;;;;;33.40;19.52;;;;;;;4.77;100.00;100811.06;6224523;23;20021;-66
2023/03/19 06:31:57;;;;;;;32.30;18.42;;;;;;;4.92;100.00;100816.97;6222979;23;20051;-65
2023/03/19 06:34:24;;;;;;;35.05;18.70;;;;;;;4.98;100.00;100821.81;6223392;23;20080;-66
2023/03/19 06:36:52;;;;;;;35.80;19.50;;;;;;;5.38;100.00;100824.75;6222528;23;20044;-65
2023/03/19 06:39:19;;;;;;;32.58;17.60;;;;;;;5.49;100.00;100834.53;6223674;23;20056;-65
2023/03/19 06:41:45;;;;;;;36.45;17.92;;;;;;;5.48;100.00;100860.31;6223497;23;20353;-65
2023/03/19 06:44:12;;;;;;;31.63;18.23;;;;;;;5.50;100.00;100865.53;6187170;23;20469;-65
2023/03/19 06:46:38;;;;;;;30.83;19.65;;;;;;;5.68;100.00;100866.69;6222733;23;20028;-65
2023/03/19 06:49:05;;;;;;;35.00;19.63;;;;;;;5.84;100.00;100863.63;6223514;23;20500;-65
2023/03/19 06:51:32;;;;;;;33.70;19.20;;;;;;;5.53;100.00;100862.63;6223211;23;20454;-65
2023/03/19 06:53:58;;;;;;;29.58;17.98;;;;;;;5.31;100.00;100884.75;6224775;23;20051;-65
2023/03/19 06:56:26;;;;;;;33.65;18.70;;;;;;;5.39;100.00;100900.13;6222936;23;20043;-66
2023/03/19 06:58:52;;;;;;;30.27;17.83;;;;;;;5.47;100.00;100924.31;6224768;23;20039;-68
2023/03/19 07:01:18;;;;;;;32.55;17.60;;;;;;;5.40;100.00;100933.75;6225727;23;20059;-65
2023/03/19 07:03:45;;;;;;;36.03;18.45;;;;;;;5.49;100.00;100960.47;6218591;23;20020;-65
2023/03/19 07:06:12;;;;;;;30.98;18.88;;;;;;;5.43;100.00;100941.47;6224469;23;20520;-65
2023/03/19 07:08:38;;;;;;;33.95;19.30;;;;;;;5.57;100.00;100945.72;6224025;23;20084;-65
2023/03/19 07:11:06;;;;;;;30.88;18.73;;;;;;;5.36;100.00;100948.25;6224646;23;20016;-65
2023/03/19 07:13:33;;;;;;;29.55;19.50;;;;;;;5.36;100.00;100974.88;6224346;23;20029;-65
2023/03/19 07:15:59;;;;;;;33.92;20.75;;;;;;;5.41;100.00;100951.38;6225200;23;20044;-66
2023/03/19 07:18:26;;;;;;;32.20;20.10;;;;;;;5.43;100.00;100917.53;6185023;23;20040;-65
2023/03/19 07:20:52;;;;;;;30.20;21.05;;;;;;;5.55;100.00;100929.84;6225152;23;20008;-70
2023/03/19 07:23:19;;;;;;;43.60;22.48;;;;;;;5.55;100.00;100929.84;6227327;23;20084;-66
2023/03/19 07:25:46;;;;;;;35.45;20.88;;;;;;;5.24;100.00;100918.13;6222356;23;20100;-65
2023/03/19 07:28:13;;;;;;;40.80;21.52;;;;;;;5.10;100.00;100899.75;6220133;23;20033;-64
2023/03/19 07:30:40;;;;;;;39.15;22.05;;;;;;;5.01;100.00;100880.91;6224961;23;20029;-65
2023/03/19 07:33:07;;;;;;;34.67;22.65;;;;;;;5.10;100.00;100892.63;6224438;23;20099;-65
2023/03/19 07:35:33;;;;;;;40.88;23.42;;;;;;;5.05;100.00;100884.16;6209508;23;20047;-65
2023/03/19 07:38:01;;;;;;;40.42;23.10;;;;;;;5.01;100.00;100872.09;6223418;23;20405;-73
2023/03/19 07:40:28;;;;;;;36.70;23.33;;;;;;;5.36;100.00;100863.13;6207402;23;20030;-71
2023/03/19 07:42:54;;;;;;;40.28;24.23;;;;;;;5.58;100.00;100873.72;6212942;23;20095;-73
2023/03/19 07:45:21;;;;;;;36.95;22.65;;;;;;;5.67;100.00;100872.97;6213355;23;20041;-73
2023/03/19 07:47:50;;;;;;;33.88;22.08;;;;;;;5.60;100.00;100873.63;6213589;23;20026;-73
2023/03/19 07:50:16;;;;;;;33.25;21.50;;;;;;;5.68;100.00;100885.31;6213164;23;20048;-72
2023/03/19 07:52:47;;;;;;;32.05;19.85;;;;;;;5.73;100.00;100887.59;6204405;23;20026;-72
2023/03/19 07:55:14;;;;;;;30.13;19.48;;;;;;;5.58;100.00;100894.16;6212637;23;20108;-72
2023/03/19 07:57:41;;;;;;;34.65;21.70;;;;;;;5.43;100.00;100893.59;6212920;23;20020;-73
2023/03/19 08:00:09;;;;;;;34.75;20.40;;;;;;;5.59;100.00;100878.06;6213181;23;20051;-73
2023/03/19 08:02:35;;;;;;;30.85;19.58;;;;;;;5.68;100.00;100877.31;6212001;23;20104;-72
2023/03/19 08:05:03;;;;;;;36.20;20.38;;;;;;;5.76;100.00;100877.53;6207420;23;20024;-71
2023/03/19 08:07:31;;;;;;;40.67;21.33;;;;;;;5.71;100.00;100890.41;6206113;23;20028;-66
2023/03/19 08:09:57;;;;;;;37.22;21.15;;;;;;;5.86;100.00;100892.78;6223241;23;20475;-66
2023/03/19 08:12:24;;;;;;;29.63;19.25;;;;;;;5.99;100.00;100891.63;6222028;23;20021;-70
2023/03/19 08:14:51;;;;;;;36.58;20.95;;;;;;;6.06;100.00;100897.31;6224125;23;20038;-65
2023/03/19 08:17:18;;;;;;;28.55;17.83;;;;;;;5.91;100.00;100907.41;6222297;23;20016;-65
2023/03/19 08:19:45;;;;;;;33.83;17.77;;;;;;;5.96;100.00;100915.00;6222406;23;20039;-65
2023/03/19 08:22:12;;;;;;;32.05;17.60;;;;;;;5.97;100.00;100936.19;6221416;23;20401;-66
2023/03/19 08:24:38;;;;;;;32.28;19.65;;;;;;;5.89;100.00;100959.09;6223743;23;20095;-65
2023/03/19 08:27:05;;;;;;;32.20;20.45;;;;;;;5.89;100.00;100967.91;6223734;23;20040;-64
2023/03/19 08:29:32;;;;;;;28.75;19.15;;;;;;;5.85;100.00;100970.97;6224555;23;20402;-65
2023/03/19 08:32:00;;;;;;;37.70;20.00;;;;;;;5.79;100.00;100966.97;6223565;23;20025;-66
2023/03/19 08:34:26;;;;;;;32.88;20.05;;;;;;;5.54;100.00;100970.75;6215417;23;20048;-64
2023/03/19 08:36:53;;;;;;;38.05;19.65;;;;;;;5.61;100.00;100974.63;6224444;23;20017;-65
2023/03/19 08:39:19;;;;;;;35.63;19.98;;;;;;;5.36;100.00;100974.88;6222287;23;20032;-64
2023/03/19 08:41:46;;;;;;;35.95;22.05;;;;;;;5.42;100.00;100961.94;6224265;23;20020;-64
2023/03/19 08:44:12;;;;;;;34.33;21.52;;;;;;;5.18;100.00;100964.69;6222289;23;20511;-63
2023/03/19 08:46:41;;;;;;;36.50;21.50;;;;;;;4.98;100.00;100960.06;6220085;23;20024;-62
2023/03/19 08:49:08;;;;;;;37.80;21.58;;;;;;;4.81;100.00;100953.38;6220431;23;20462;-64
2023/03/19 08:51:35;;;;;;;39.45;22.75;;;;;;;4.91;100.00;100958.84;6216576;23;20076;-65
2023/03/19 08:54:01;;;;;;;41.83;25.95;;;;;;;4.97;100.00;100939.75;6216730;23;20036;-62
2023/03/19 08:56:28;;;;;;;47.75;25.90;;;;;;;5.06;100.00;100925.75;6217549;23;20047;-62
2023/03/19 08:58:55;;;;;;;35.30;23.33;;;;;;;5.03;100.00;100905.53;6218691;23;20334;-62
2023/03/19 09:01:23;;;;;;;36.20;23.45;;;;;;;5.49;100.00;100906.38;6218448;23;20080;-63
2023/03/19 09:03:49;;;;;;;38.25;25.02;;;;;;;5.43;100.00;100901.56;6219295;23;20023;-64
2023/03/19 09:06:16;;;;;;;49.70;25.40;;;;;;;5.14;100.00;100895.88;6221988;23;20021;-62
2023/03/19 09:08:43;;;;;;;44.13;25.27;;;;;;;5.09;100.00;100880.31;6219923;23;20024;-62
2023/03/19 09:11:10;;;;;;;40.00;23.25;;;;;;;5.17;100.00;100885.00;6219053;23;20020;-62
2023/03/19 09:13:37;;;;;;;39.65;24.88;;;;;;;5.17;100.00;100882.34;6220646;23;20039;-63
2023/03/19 09:16:04;;;;;;;39.45;25.17;;;;;;;5.22;100.00;100874.88;6220193;23;20385;-62
2023/03/19 09:18:32;;;;;;;36.88;23.88;;;;;;;5.17;100.00;100869.91;6220157;23;20024;-63
2023/03/19 09:20:59;;;;;;;41.30;25.73;;;;;;;5.34;100.00;100870.38;6214339;23;20020;-70
2023/03/19 09:23:26;;;;;;;39.00;26.38;;;;;;;5.46;100.00;100880.03;6211836;23;20357;-70
2023/03/19 09:25:53;;;;;;;35.10;24.23;;;;;;;5.61;100.00;100883.28;6212967;23;20017;-70
2023/03/19 09:28:20;;;;;;;39.72;24.17;;;;;;;5.75;100.00;100881.19;6213217;23;20091;-70
2023/03/19 09:30:49;;;;;;;46.03;24.02;;;;;;;5.64;100.00;100886.53;6214835;23;20016;-71
2023/03/19 09:33:17;;;;;;;33.45;21.25;;;;;;;5.65;100.00;100880.22;6215384;23;20031;-70
2023/03/19 09:35:49;;;;;;;39.50;22.50;;;;;;;5.84;100.00;100879.59;6211344;23;20103;-70
2023/03/19 09:38:16;;;;;;;36.55;21.67;;;;;;;5.82;100.00;100873.53;6217156;23;20052;-69
2023/03/19 09:40:46;;;;;;;32.65;21.42;;;;;;;5.98;100.00;100867.81;6216353;23;20035;-69
2023/03/19 09:43:59;;;;;;;35.08;21.65;;;;;;;6.05;100.00;100865.50;6216589;23;20016;-70
2023/03/19 09:46:43;;;;;;;36.50;20.95;;;;;;;5.93;100.00;100867.31;6185116;23;20105;-70
2023/03/19 09:49:31;;;;;;;27.48;18.77;;;;;;;6.10;100.00;100877.44;6215479;23;20047;-70
2023/03/19 09:52:19;;;;;;;35.78;20.02;;;;;;;6.21;100.00;100871.22;6186742;23;20036;-70
2023/03/19 09:54:51;;;;;;;30.77;19.23;;;;;;;6.39;100.00;100871.50;6205952;23;20046;-71
2023/03/19 09:57:18;;;;;;;31.30;19.73;;;;;;;6.48;100.00;100873.41;6216615;23;20024;-71
2023/03/19 09:59:46;;;;;;;27.52;19.55;;;;;;;6.58;100.00;100873.47;6215526;23;20123;-69
2023/03/19 10:02:36;;;;;;;28.77;19.48;;;;;;;6.78;100.00;100874.44;6216835;23;20028;-70
2023/03/19 10:05:17;;;;;;;29.02;18.38;;;;;;;6.86;100.00;100877.28;6209069;23;20079;-68
2023/03/19 10:08:38;;;;;;;27.35;17.52;;;;;;;6.79;100.00;100874.31;6214641;23;20100;-70
2023/03/19 10:11:14;;;;;;;27.13;17.17;;;;;;;6.96;100.00;100872.84;6095386;23;20483;-69
2023/03/19 10:13:55;;;;;;;32.03;18.35;;;;;;;6.94;100.00;100886.34;6093039;23;20359;-70
2023/03/19 10:16:25;;;;;;;27.80;17.55;;;;;;;6.99;100.00;100872.59;6092474;23;20033;-70
2023/03/19 10:18:54;;;;;;;28.17;17.10;;;;;;;6.94;100.00;100885.47;6092086;23;20102;-70
2023/03/19 10:21:33;;;;;;;24.23;16.65;;;;;;;6.87;100.00;100889.63;6092326;23;20030;-70
2023/03/19 10:24:03;;;;;;;24.60;15.70;;;;;;;6.98;100.00;100886.03;6091499;23;20023;-70
2023/03/19 10:26:35;;;;;;;25.47;16.13;;;;;;;7.08;100.00;100882.44;6090704;23;20109;-69
2023/03/19 10:29:02;;;;;;;;;;;;;;;6.97;100.00;100890.53;6090258;23;20257;-68
2023/03/19 10:31:38;;;;;;;23.05;14.95;;;;;;;7.23;100.00;100884.78;6089605;23;20507;-68
2023/03/19 10:34:17;;;;;;;27.13;15.88;;;;;;;7.65;100.00;100882.78;6091268;23;20063;-69
2023/03/19 10:36:44;;;;;;;20.63;13.27;;;;;;;8.56;100.00;100870.88;6091207;23;20452;-69
2023/03/19 10:39:15;;;;;;;19.25;12.15;;;;;;;8.93;100.00;100890.66;6090573;23;20375;-70
2023/03/19 10:41:50;;;;;;;17.52;12.45;;;;;;;8.85;100.00;100889.56;6089499;23;20098;-69
2023/03/19 10:44:41;;;;;;;20.10;13.07;;;;;;;8.94;100.00;100886.97;6126010;23;20108;-70
2023/03/19 10:47:13;;;;;;;21.45;11.90;;;;;;;8.57;100.00;100882.41;6211121;23;20107;-70
2023/03/19 10:49:39;;;;;;;21.10;11.73;;;;;;;8.92;100.00;100884.47;6210819;23;20461;-70
2023/03/19 10:52:18;;;;;;;18.23;11.90;;;;;;;8.91;100.00;100896.13;6208307;23;20016;-70
2023/03/19 10:54:45;;;;;;;21.17;10.48;;;;;;;9.29;100.00;100889.81;6211668;23;20401;-70
2023/03/19 10:57:24;;;;;;;15.02;9.85;;;;;;;9.51;100.00;100893.97;6209705;23;20028;-70
2023/03/19 10:59:51;;;;;;;17.13;10.13;;;;;;;9.48;100.00;100890.75;6209449;23;20107;-70
2023/03/19 11:02:22;;;;;;;16.92;9.40;;;;;;;9.35;100.00;100896.44;6209578;23;22136;-71
2023/03/19 11:05:07;;;;;;;16.80;9.68;;;;;;;9.35;100.00;100899.13;6209475;23;20033;-71
2023/03/19 11:07:36;;;;;;;16.38;8.95;;;;;;;9.52;100.00;100901.00;6209705;23;20021;-71
2023/03/19 11:10:02;;;;;;;15.88;10.00;;;;;;;9.46;100.00;100901.59;6209887;23;20036;-70
2023/03/19 11:12:34;;;;;;;16.90;8.60;;;;;;;9.11;100.00;100901.44;6212100;23;20050;-71
2023/03/19 11:15:06;;;;;;;17.38;9.95;;;;;;;9.37;100.00;100894.47;6211332;23;20099;-71
2023/03/19 11:17:38;;;;;;;14.95;9.40;;;;;;;9.49;100.00;100900.47;6210576;23;20021;-71
2023/03/19 11:20:14;;;;;;;14.98;8.93;;;;;;;9.39;100.00;100905.00;6212016;23;20454;-70
2023/03/19 11:22:41;;;;;;;14.43;9.45;;;;;;;9.13;100.00;100899.44;6211254;23;20021;-71
2023/03/19 11:25:17;;;;;;;16.40;8.85;;;;;;;9.27;100.00;100896.34;6212337;23;20031;-71
2023/03/19 11:27:57;;;;;;;14.82;9.10;;;;;;;9.05;100.00;100893.00;6212019;23;20047;-70
2023/03/19 11:30:32;;;;;;;12.32;8.82;;;;;;;8.85;100.00;100904.75;6212961;23;20020;-71
2023/03/19 11:33:06;;;;;;;16.15;8.98;;;;;;;8.46;100.00;100899.44;6212836;23;20047;-72
2023/03/19 11:36:24;;;;;;;12.13;7.60;;;;;;;8.21;100.00;100894.69;6213846;23;20027;-69
2023/03/19 11:39:05;;;;;;;15.45;8.30;;;;;;;8.63;100.00;100881.00;6131582;23;20020;-70
2023/03/19 11:41:39;;;;;;;13.68;8.55;;;;;;;8.65;100.00;100879.03;6213331;23;20027;-71
2023/03/19 11:44:18;;;;;;;12.57;8.13;;;;;;;8.58;100.00;100878.78;6214510;23;20024;-71
2023/03/19 11:46:54;;;;;;;14.15;8.77;;;;;;;8.43;100.00;100878.34;6212945;23;20052;-70
2023/03/19 11:49:29;;;;;;;14.77;8.77;;;;;;;8.52;100.00;100879.34;6214493;23;20434;-70
2023/03/19 11:52:04;;;;;;;17.15;8.23;;;;;;;8.26;100.00;100879.06;6214726;23;20059;-71
2023/03/19 11:54:37;;;;;;;12.48;8.48;;;;;;;8.90;100.00;100881.09;6214631;23;20020;-70
2023/03/19 11:57:17;;;;;;;13.25;8.85;;;;;;;9.04;100.00;100877.09;6215139;23;20020;-71
2023/03/19 12:00:19;;;;;;;17.45;9.30;;;;;;;8.79;100.00;100870.56;6215680;23;20047;-71
2023/03/19 12:03:05;;;;;;;16.73;9.32;;;;;;;8.37;100.00;100879.78;6211629;23;20025;-71
2023/03/19 12:06:11;;;;;;;16.98;9.70;;;;;;;8.64;100.00;100877.34;6215052;23;20049;-71
2023/03/19 12:08:50;;;;;;;15.38;8.25;;;;;;;8.78;100.00;100882.22;6208782;23;20549;-70
2023/03/19 12:11:22;;;;;;;15.50;8.88;;;;;;;8.79;100.00;100878.59;6213655;23;20020;-71
2023/03/19 12:14:15;;;;;;;14.60;8.73;;;;;;;9.09;100.00;100875.69;6214961;23;20016;-71
2023/03/19 12:17:03;;;;;;;15.57;9.63;;;;;;;9.31;100.00;100876.31;6214524;23;20023;-72
2023/03/19 12:19:46;;;;;;;20.15;10.45;;;;;;;9.21;100.00;100876.31;6212393;23;20027;-71
2023/03/19 12:22:13;;;;;;;17.40;9.60;;;;;;;8.76;100.00;100874.34;6213120;23;20027;-72
2023/03/19 12:24:56;;;;;;;15.27;9.60;;;;;;;9.03;100.00;100870.06;6217052;23;20020;-72
2023/03/19 12:27:33;;;;;;;12.77;8.23;;;;;;;9.52;100.00;100878.75;6216597;23;20033;-71
2023/03/19 12:30:05;;;;;;;12.90;9.18;;;;;;;9.74;100.00;100869.44;6217073;23;20068;-72
2023/03/19 12:32:56;;;;;;;14.55;8.95;;;;;;;9.79;100.00;100861.81;6215958;23;20076;-69
2023/03/19 12:35:31;;;;;;;13.50;9.05;;;;;;;9.61;100.00;100871.63;6216891;23;20024;-71
2023/03/19 12:38:15;;;;;;;14.38;9.07;;;;;;;9.78;100.00;100868.97;6216388;23;20076;-71
2023/03/19 12:40:57;;;;;;;14.10;8.85;;;;;;;10.13;100.00;100858.41;6199345;23;20021;-70
2023/03/19 12:43:36;;;;;;;19.13;9.35;;;;;;;10.38;100.00;100852.28;6192849;23;20021;-71
2023/03/19 12:46:13;;;;;;;15.75;8.60;;;;;;;10.41;100.00;100851.09;6216568;22;20051;-68